Time;durP1;ratioP1;P1;durP2;ratioP2;P2;SDS_P1;SDS_P2;PMS_P1;PMS_P2;Temp;Humidity;BMP_temperature;BMP_pressure;BME280_temperature;BME280_humidity;BME280_pressure;Samples;Min_cycle;Max_cycle;Signal;HPM_P1;HPM_P2
2021/12/30 00:00:18;;;;;;;2.00;1.10;;;12.70;99.90;;;;;;5073620;28;20878;-73
2021/12/30 00:02:45;;;;;;;1.50;0.83;;;12.70;99.90;;;;;;5073981;28;20460;-73
2021/12/30 00:05:14;;;;;;;1.40;0.83;;;12.70;99.90;;;;;;5072593;28;20540;-73
2021/12/30 00:07:41;;;;;;;0.90;0.70;;;12.60;99.90;;;;;;5073953;28;20872;-74
2021/12/30 00:10:09;;;;;;;1.30;0.80;;;12.50;99.90;;;;;;5073266;28;20477;-74
2021/12/30 00:12:36;;;;;;;1.90;0.80;;;12.50;99.90;;;;;;5073826;28;20483;-74
2021/12/30 00:15:05;;;;;;;1.33;0.80;;;12.50;99.90;;;;;;5072861;28;20532;-73
2021/12/30 00:17:33;;;;;;;1.93;1.37;;;12.40;99.90;;;;;;5073638;28;20536;-74
2021/12/30 00:20:01;;;;;;;1.23;0.70;;;12.40;99.90;;;;;;5072887;28;20453;-72
2021/12/30 00:22:29;;;;;;;1.43;0.60;;;12.40;99.90;;;;;;5073682;28;20453;-74
2021/12/30 00:24:56;;;;;;;1.00;0.83;;;12.50;99.90;;;;;;5073486;28;20445;-74
2021/12/30 00:27:23;;;;;;;1.00;0.80;;;12.60;99.90;;;;;;5072932;28;20449;-74
2021/12/30 00:29:50;;;;;;;1.40;0.80;;;12.80;99.90;;;;;;5073191;28;20886;-74
2021/12/30 00:32:17;;;;;;;0.90;0.63;;;12.80;99.90;;;;;;5072739;28;20813;-75
2021/12/30 00:34:44;;;;;;;1.97;0.80;;;12.90;99.90;;;;;;5072786;28;20525;-74
2021/12/30 00:37:11;;;;;;;1.90;0.67;;;13.00;99.90;;;;;;5072703;28;20467;-74
2021/12/30 00:39:39;;;;;;;1.40;0.90;;;12.90;99.90;;;;;;5073521;28;20540;-74
2021/12/30 00:42:07;;;;;;;2.17;0.90;;;13.10;99.90;;;;;;5072804;28;20526;-75
2021/12/30 00:44:34;;;;;;;0.80;0.70;;;13.20;99.90;;;;;;5072846;28;20446;-74
2021/12/30 00:47:02;;;;;;;1.67;0.60;;;13.20;99.90;;;;;;5072711;28;20536;-74
2021/12/30 00:49:30;;;;;;;0.90;0.80;;;13.30;99.90;;;;;;5073163;28;20531;-73
2021/12/30 00:51:57;;;;;;;0.90;0.50;;;13.20;99.90;;;;;;5072985;28;20485;-74
2021/12/30 00:54:24;;;;;;;3.73;1.07;;;13.10;99.90;;;;;;5072558;28;20507;-74
2021/12/30 00:56:52;;;;;;;4.00;0.77;;;13.00;99.90;;;;;;5072948;28;20532;-74
2021/12/30 00:59:19;;;;;;;3.40;0.70;;;13.00;99.90;;;;;;5072462;28;21283;-74
2021/12/30 01:01:46;;;;;;;1.60;0.93;;;13.00;99.90;;;;;;5072595;28;20981;-74
2021/12/30 01:04:13;;;;;;;2.07;0.80;;;13.10;99.90;;;;;;5071695;28;20492;-74
2021/12/30 01:06:40;;;;;;;1.70;0.90;;;13.10;99.90;;;;;;5071806;28;20455;-74
2021/12/30 01:09:07;;;;;;;2.47;0.83;;;13.00;99.90;;;;;;5072257;28;20452;-74
2021/12/30 01:11:34;;;;;;;1.83;0.87;;;13.10;99.90;;;;;;5072492;28;20446;-75
2021/12/30 01:14:09;;;;;;;1.63;0.63;;;13.10;99.90;;;;;;5071320;28;20527;-74
2021/12/30 01:16:42;;;;;;;1.37;0.93;;;13.00;99.90;;;;;;5072495;28;20987;-75
2021/12/30 01:19:23;;;;;;;1.70;0.70;;;12.90;99.90;;;;;;5071606;28;20519;-75
2021/12/30 01:21:52;;;;;;;2.60;0.77;;;12.80;99.90;;;;;;5072496;28;20465;-74
2021/12/30 01:24:19;;;;;;;1.30;0.80;;;12.90;99.90;;;;;;5071550;28;20449;-75
2021/12/30 01:26:46;;;;;;;1.57;0.80;;;12.80;99.90;;;;;;5072089;28;20450;-74
2021/12/30 01:29:14;;;;;;;2.90;0.70;;;12.70;99.90;;;;;;5071747;28;20459;-75
2021/12/30 01:31:41;;;;;;;1.47;0.90;;;12.60;99.90;;;;;;5072307;28;20467;-74
2021/12/30 01:34:08;;;;;;;1.43;0.60;;;12.80;99.90;;;;;;5070971;28;20480;-76
2021/12/30 01:36:35;;;;;;;0.90;0.80;;;12.90;99.90;;;;;;5071951;28;21025;-76
2021/12/30 01:39:02;;;;;;;3.40;0.90;;;12.90;99.90;;;;;;5071648;28;20552;-75
2021/12/30 01:41:29;;;;;;;2.00;0.83;;;12.80;99.90;;;;;;5072354;28;20451;-75
2021/12/30 01:43:56;;;;;;;1.63;0.60;;;12.70;99.90;;;;;;5071983;28;20448;-76
2021/12/30 01:46:24;;;;;;;1.17;0.73;;;12.80;99.90;;;;;;5071502;28;20472;-76
2021/12/30 01:48:51;;;;;;;1.60;0.80;;;12.80;99.90;;;;;;5071844;28;20532;-76
2021/12/30 01:51:18;;;;;;;1.03;0.73;;;12.80;99.90;;;;;;5070916;28;20458;-76
2021/12/30 01:53:45;;;;;;;1.73;0.90;;;12.60;99.90;;;;;;5071735;28;20478;-76
2021/12/30 01:56:11;;;;;;;1.90;1.00;;;12.50;99.90;;;;;;5070976;28;20460;-75
2021/12/30 01:58:38;;;;;;;1.60;0.97;;;12.50;99.90;;;;;;5071631;28;20953;-77
2021/12/30 02:01:05;;;;;;;1.47;0.77;;;12.60;99.90;;;;;;5071083;28;20464;-76
2021/12/30 02:03:34;;;;;;;2.03;1.10;;;12.40;99.90;;;;;;5071818;28;20541;-76
2021/12/30 02:06:01;;;;;;;2.33;0.80;;;12.40;99.90;;;;;;5070599;28;20477;-76
2021/12/30 02:08:28;;;;;;;3.80;0.90;;;12.30;99.90;;;;;;5071849;28;20441;-77
2021/12/30 02:10:55;;;;;;;1.20;0.63;;;12.20;99.90;;;;;;5071434;28;20456;-77
2021/12/30 02:13:22;;;;;;;2.03;1.70;;;12.20;99.90;;;;;;5071076;28;20903;-77
2021/12/30 02:15:49;;;;;;;2.27;1.57;;;12.10;99.90;;;;;;5070799;28;20955;-77
2021/12/30 02:18:17;;;;;;;2.30;0.97;;;12.20;99.90;;;;;;5070632;28;20441;-77
2021/12/30 02:20:48;;;;;;;4.53;1.93;;;12.30;99.90;;;;;;5070986;28;20453;-76
2021/12/30 02:23:17;;;;;;;6.20;0.87;;;12.30;99.90;;;;;;5070765;28;20438;-77
2021/12/30 02:25:45;;;;;;;1.87;0.80;;;12.30;99.90;;;;;;5071101;28;20453;-77
2021/12/30 02:28:14;;;;;;;1.07;0.70;;;12.30;99.90;;;;;;5071084;28;20473;-76
2021/12/30 02:30:43;;;;;;;1.80;0.60;;;12.40;99.90;;;;;;5071602;28;20445;-75
2021/12/30 02:33:11;;;;;;;2.17;1.03;;;12.40;99.90;;;;;;5070895;28;20487;-77
2021/12/30 02:35:38;;;;;;;4.77;0.90;;;12.60;99.90;;;;;;5070903;28;20449;-77
2021/12/30 02:38:07;;;;;;;1.53;0.60;;;12.70;99.90;;;;;;5070821;28;20442;-77
2021/12/30 02:40:36;;;;;;;2.23;0.73;;;12.70;99.90;;;;;;5071330;28;20545;-77
2021/12/30 02:43:06;;;;;;;1.07;0.77;;;12.70;99.90;;;;;;5070711;28;20453;-77
2021/12/30 02:45:33;;;;;;;1.53;0.93;;;12.60;99.90;;;;;;5070930;28;20454;-77
2021/12/30 02:48:00;;;;;;;2.83;1.00;;;12.60;99.90;;;;;;5070528;28;20933;-72
2021/12/30 02:50:27;;;;;;;1.57;0.87;;;12.60;99.90;;;;;;5071371;28;20457;-78
2021/12/30 02:52:54;;;;;;;2.00;1.20;;;12.60;99.90;;;;;;5070716;28;20572;-78
2021/12/30 02:55:22;;;;;;;1.23;0.80;;;12.50;99.90;;;;;;5069894;28;20929;-78
2021/12/30 02:57:49;;;;;;;2.87;0.90;;;12.40;99.90;;;;;;5071083;28;20792;-78
2021/12/30 03:00:16;;;;;;;1.47;1.00;;;12.40;99.90;;;;;;5070715;28;20445;-78
2021/12/30 03:02:43;;;;;;;1.83;1.00;;;12.40;99.90;;;;;;5070683;28;20455;-78
2021/12/30 03:05:15;;;;;;;1.90;1.10;;;12.40;99.90;;;;;;5069896;28;20783;-79
2021/12/30 03:07:42;;;;;;;2.20;1.03;;;12.40;99.90;;;;;;5071112;28;20442;-78
2021/12/30 03:10:15;;;;;;;2.40;1.17;;;12.40;99.90;;;;;;5070658;28;20451;-79
2021/12/30 03:12:43;;;;;;;2.50;0.90;;;12.30;99.90;;;;;;5071021;28;20806;-78
2021/12/30 03:15:12;;;;;;;0.90;0.70;;;12.40;99.90;;;;;;5070183;28;20481;-79
2021/12/30 03:17:39;;;;;;;1.10;0.90;;;12.40;99.90;;;;;;5073529;28;20484;-79
2021/12/30 03:20:09;;;;;;;1.30;1.00;;;12.30;99.90;;;;;;5070270;28;20518;-79
2021/12/30 03:22:36;;;;;;;1.90;0.90;;;12.30;99.90;;;;;;5071044;28;20468;-79
2021/12/30 03:25:05;;;;;;;1.60;1.00;;;12.20;99.90;;;;;;5069914;28;20868;-79
2021/12/30 03:27:32;;;;;;;1.60;1.00;;;12.20;99.90;;;;;;5070695;28;20516;-79
2021/12/30 03:30:00;;;;;;;3.50;0.90;;;12.00;99.90;;;;;;5073357;28;20449;-79
2021/12/30 03:32:27;;;;;;;2.93;1.83;;;11.90;99.90;;;;;;5074907;28;20446;-79
2021/12/30 03:34:54;;;;;;;1.03;0.93;;;11.90;99.90;;;;;;5073931;28;20480;-79
2021/12/30 03:37:21;;;;;;;1.70;1.13;;;11.90;99.90;;;;;;5074061;28;20451;-79
2021/12/30 03:39:48;;;;;;;1.37;0.90;;;11.90;99.90;;;;;;5074488;28;20451;-80
2021/12/30 03:42:16;;;;;;;2.00;1.10;;;11.80;99.90;;;;;;5073584;28;20449;-79
2021/12/30 03:44:43;;;;;;;1.77;1.07;;;11.80;99.90;;;;;;5074081;28;20461;-79
2021/12/30 03:47:15;;;;;;;1.73;1.10;;;11.80;99.90;;;;;;5073861;28;20459;-80
2021/12/30 03:49:44;;;;;;;4.20;1.27;;;11.80;99.90;;;;;;5074187;28;20456;-81
2021/12/30 03:52:14;;;;;;;1.97;1.20;;;11.70;99.90;;;;;;5073427;28;20484;-80
2021/12/30 03:54:42;;;;;;;2.10;1.13;;;11.70;99.90;;;;;;5073442;28;21055;-76
2021/12/30 03:57:09;;;;;;;1.47;1.33;;;11.80;99.90;;;;;;5073805;28;20461;-80
2021/12/30 03:59:36;;;;;;;3.60;1.40;;;11.80;99.90;;;;;;5073848;28;20533;-80
2021/12/30 04:02:04;;;;;;;4.90;1.20;;;11.80;99.90;;;;;;5073625;28;20481;-80
2021/12/30 04:04:32;;;;;;;1.33;1.10;;;11.80;99.90;;;;;;5073574;28;20450;-79
2021/12/30 04:06:59;;;;;;;1.13;0.77;;;11.90;99.90;;;;;;5074296;28;20456;-80
2021/12/30 04:09:26;;;;;;;2.10;1.37;;;12.00;99.90;;;;;;5074097;28;20446;-80
2021/12/30 04:11:53;;;;;;;1.60;0.90;;;12.10;99.90;;;;;;5073929;28;20445;-80
2021/12/30 04:14:21;;;;;;;0.93;0.63;;;12.20;99.90;;;;;;5059405;28;20477;-81
2021/12/30 04:16:49;;;;;;;2.90;0.83;;;12.30;99.90;;;;;;5073738;28;20456;-80
2021/12/30 04:19:15;;;;;;;2.47;1.13;;;12.40;99.90;;;;;;5073336;28;20445;-80
2021/12/30 04:21:44;;;;;;;0.87;0.67;;;12.40;99.90;;;;;;5073531;28;20539;-80
2021/12/30 04:24:11;;;;;;;1.03;0.87;;;12.30;99.90;;;;;;5072512;28;20972;-80
2021/12/30 04:26:38;;;;;;;0.90;0.70;;;12.30;99.90;;;;;;5073487;28;20450;-80
2021/12/30 04:29:05;;;;;;;2.20;0.97;;;12.20;99.90;;;;;;5072942;28;20460;-80
2021/12/30 04:31:33;;;;;;;1.77;0.90;;;12.20;99.90;;;;;;5073570;28;20446;-80
2021/12/30 04:34:00;;;;;;;1.00;0.80;;;12.10;99.90;;;;;;5073205;28;20878;-71
2021/12/30 04:36:27;;;;;;;2.70;1.10;;;12.10;99.90;;;;;;5073467;28;20437;-80
2021/12/30 04:38:56;;;;;;;5.33;0.90;;;12.10;99.90;;;;;;5073556;28;20448;-80
2021/12/30 04:41:22;;;;;;;1.30;0.80;;;12.10;99.90;;;;;;5072313;28;20456;-80
2021/12/30 04:43:49;;;;;;;1.40;1.00;;;12.10;99.90;;;;;;5072844;28;20572;-81
2021/12/30 04:46:16;;;;;;;2.80;1.20;;;12.10;99.90;;;;;;5072688;28;20445;-80
2021/12/30 04:48:43;;;;;;;1.43;1.00;;;12.10;99.90;;;;;;5073432;28;20452;-80
2021/12/30 04:51:10;;;;;;;1.20;0.80;;;12.00;99.90;;;;;;5071925;28;20964;-80
2021/12/30 04:53:37;;;;;;;1.83;0.70;;;12.10;99.90;;;;;;5072473;28;20443;-80
2021/12/30 04:56:05;;;;;;;1.40;1.00;;;12.10;99.90;;;;;;5072174;28;20448;-80
2021/12/30 04:58:32;;;;;;;2.20;0.80;;;12.10;99.90;;;;;;5072676;28;20448;-81
2021/12/30 05:00:59;;;;;;;2.53;0.90;;;12.10;99.90;;;;;;5072806;28;20452;-81
2021/12/30 05:03:27;;;;;;;2.30;1.17;;;12.10;99.90;;;;;;5073175;28;20442;-81
2021/12/30 05:05:55;;;;;;;1.40;1.20;;;12.00;99.90;;;;;;5072672;28;20449;-82
2021/12/30 05:08:24;;;;;;;1.30;0.90;;;12.00;99.90;;;;;;5072067;28;20450;-81
2021/12/30 05:10:52;;;;;;;1.10;0.70;;;12.00;99.90;;;;;;5073127;28;20515;-81
2021/12/30 05:13:20;;;;;;;1.00;0.80;;;12.00;99.90;;;;;;5072353;28;20445;-80
2021/12/30 05:15:47;;;;;;;1.60;1.10;;;12.00;99.90;;;;;;5072182;28;20589;-81
2021/12/30 05:18:15;;;;;;;3.00;1.00;;;12.00;99.90;;;;;;5072243;28;20437;-81
2021/12/30 05:20:43;;;;;;;2.20;1.07;;;12.00;99.90;;;;;;5072018;28;20442;-80
2021/12/30 05:23:10;;;;;;;1.50;1.00;;;12.00;99.90;;;;;;5071915;28;20952;-81
2021/12/30 05:25:38;;;;;;;1.50;1.07;;;12.00;99.90;;;;;;5071923;28;20961;-81
2021/12/30 05:28:05;;;;;;;2.13;0.93;;;12.10;99.90;;;;;;5072062;28;20449;-81
2021/12/30 05:30:33;;;;;;;2.03;1.27;;;12.00;99.90;;;;;;5072399;28;20450;-81
2021/12/30 05:33:00;;;;;;;1.43;0.90;;;12.00;99.90;;;;;;5072036;28;20456;-74
2021/12/30 05:35:27;;;;;;;1.20;1.03;;;12.00;99.90;;;;;;5071897;28;20485;-80
2021/12/30 05:37:55;;;;;;;1.40;1.10;;;11.90;99.90;;;;;;5072132;28;20452;-81
2021/12/30 05:40:23;;;;;;;2.27;1.00;;;12.00;99.90;;;;;;5071635;28;20740;-81
2021/12/30 05:42:50;;;;;;;3.43;1.13;;;11.90;99.90;;;;;;5071808;28;21000;-81
2021/12/30 05:45:18;;;;;;;1.50;1.40;;;11.90;99.90;;;;;;5057790;28;20455;-81
2021/12/30 05:47:48;;;;;;;2.53;1.10;;;11.90;99.90;;;;;;5072065;28;20449;-82
2021/12/30 05:50:17;;;;;;;1.40;1.03;;;11.90;99.90;;;;;;5058720;28;20495;-81
2021/12/30 05:52:44;;;;;;;10.07;1.03;;;12.00;99.90;;;;;;5071368;28;20961;-82
2021/12/30 05:55:13;;;;;;;3.00;1.33;;;12.00;99.90;;;;;;5070702;28;20487;-78
2021/12/30 05:57:40;;;;;;;1.43;0.80;;;12.10;99.90;;;;;;5071577;28;21003;-82
2021/12/30 06:00:09;;;;;;;1.73;0.87;;;12.20;99.90;;;;;;5071464;28;20451;-82
2021/12/30 06:02:36;;;;;;;2.30;1.13;;;12.20;99.90;;;;;;5071823;28;20450;-82
2021/12/30 06:05:06;;;;;;;1.00;0.87;;;12.30;99.90;;;;;;5070814;28;20448;-82
2021/12/30 06:07:33;;;;;;;0.93;0.67;;;12.30;99.90;;;;;;5071467;28;20452;-82
2021/12/30 06:10:00;;;;;;;0.80;0.70;;;12.40;99.90;;;;;;5071125;28;20965;-71
2021/12/30 06:12:27;;;;;;;1.03;0.60;;;12.40;99.90;;;;;;5071295;28;20967;-81
2021/12/30 06:14:54;;;;;;;1.00;0.60;;;12.40;99.90;;;;;;5071218;28;20481;-81
2021/12/30 06:17:21;;;;;;;1.87;0.63;;;12.50;99.90;;;;;;5071097;28;20536;-81
2021/12/30 06:19:48;;;;;;;0.80;0.60;;;12.60;99.90;;;;;;5071047;28;20487;-81
2021/12/30 06:22:16;;;;;;;0.90;0.60;;;12.60;99.90;;;;;;5070638;28;20544;-81
2021/12/30 06:24:43;;;;;;;0.83;0.50;;;12.70;99.90;;;;;;5070765;28;20954;-81
2021/12/30 06:27:11;;;;;;;0.93;0.57;;;12.60;99.90;;;;;;5071088;28;20467;-82
2021/12/30 06:29:38;;;;;;;1.40;1.20;;;12.60;99.90;;;;;;5071499;28;20455;-82
2021/12/30 06:32:06;;;;;;;0.63;0.40;;;12.60;99.90;;;;;;5070824;28;20864;-80
2021/12/30 06:34:34;;;;;;;0.70;0.50;;;12.60;99.90;;;;;;5070610;28;20849;-82
2021/12/30 06:37:01;;;;;;;0.90;0.70;;;12.60;99.90;;;;;;5070595;28;20445;-79
2021/12/30 06:39:29;;;;;;;1.03;0.60;;;12.60;99.90;;;;;;5071685;28;20786;-82
2021/12/30 06:41:56;;;;;;;1.83;0.80;;;12.50;99.90;;;;;;5071158;28;20441;-82
2021/12/30 06:44:22;;;;;;;0.90;0.60;;;12.50;99.90;;;;;;5070368;28;20458;-82
2021/12/30 06:46:56;;;;;;;1.83;0.80;;;12.50;99.90;;;;;;5071304;28;20482;-82
2021/12/30 06:49:23;;;;;;;1.20;0.80;;;12.50;99.90;;;;;;5070881;28;20457;-81
2021/12/30 06:51:50;;;;;;;0.80;0.57;;;12.50;99.90;;;;;;5070865;28;21296;-82
2021/12/30 06:54:17;;;;;;;1.67;0.80;;;12.50;99.90;;;;;;5069884;28;20941;-81
2021/12/30 06:56:46;;;;;;;0.80;0.53;;;12.50;99.90;;;;;;5071388;28;20450;-82
2021/12/30 06:59:14;;;;;;;1.00;0.60;;;12.50;99.90;;;;;;5070679;28;20520;-81
2021/12/30 07:01:41;;;;;;;1.57;1.43;;;12.50;99.90;;;;;;5071052;28;20480;-81
2021/12/30 07:04:08;;;;;;;0.70;0.50;;;12.60;99.90;;;;;;5071064;28;20455;-81
2021/12/30 07:06:35;;;;;;;1.10;0.77;;;12.50;99.90;;;;;;5075184;28;20467;-81
2021/12/30 07:09:02;;;;;;;0.80;0.60;;;12.60;99.90;;;;;;5074287;28;20460;-82
2021/12/30 07:11:29;;;;;;;1.20;0.80;;;12.60;99.90;;;;;;5074962;28;20450;-81
2021/12/30 07:13:57;;;;;;;0.80;0.57;;;12.60;99.90;;;;;;5074813;28;20456;-81
2021/12/30 07:16:24;;;;;;;0.90;0.70;;;12.60;99.90;;;;;;5074591;28;20485;-81
2021/12/30 07:18:51;;;;;;;2.20;0.60;;;12.60;99.90;;;;;;5074901;28;20537;-81
2021/12/30 07:21:18;;;;;;;1.20;0.60;;;12.60;99.90;;;;;;5074107;28;20453;-80
2021/12/30 07:23:45;;;;;;;0.70;0.57;;;12.60;99.90;;;;;;5074028;28;20453;-81
2021/12/30 07:26:12;;;;;;;1.10;0.63;;;12.70;99.90;;;;;;5074434;28;20491;-79
2021/12/30 07:28:38;;;;;;;0.90;0.60;;;12.70;99.90;;;;;;5074859;28;20449;-82
2021/12/30 07:31:07;;;;;;;1.20;0.50;;;12.60;99.90;;;;;;5074179;28;20495;-81
2021/12/30 07:33:34;;;;;;;1.00;0.70;;;12.70;99.90;;;;;;5074316;28;20560;-80
2021/12/30 07:36:01;;;;;;;1.00;0.70;;;12.70;99.90;;;;;;5074015;28;20568;-81
2021/12/30 07:38:28;;;;;;;1.30;0.60;;;12.70;99.90;;;;;;5074478;28;20945;-80
2021/12/30 07:40:55;;;;;;;1.20;0.73;;;12.70;99.90;;;;;;5074941;28;20449;-82
2021/12/30 07:43:21;;;;;;;1.23;0.70;;;12.80;99.90;;;;;;5073217;28;20456;-82
2021/12/30 07:45:48;;;;;;;0.97;0.70;;;12.80;99.90;;;;;;5074203;28;21014;-81
2021/12/30 07:48:18;;;;;;;0.90;0.60;;;12.80;99.90;;;;;;5074086;28;20805;-80
2021/12/30 07:50:45;;;;;;;0.73;0.53;;;12.80;99.90;;;;;;5074244;28;20499;-81
2021/12/30 07:53:12;;;;;;;0.70;0.50;;;12.80;99.90;;;;;;5074176;28;20477;-75
2021/12/30 07:55:39;;;;;;;0.97;0.50;;;12.80;99.90;;;;;;5074475;28;20572;-81
2021/12/30 07:58:06;;;;;;;0.83;0.50;;;12.80;99.90;;;;;;5073312;28;20952;-81
2021/12/30 08:00:33;;;;;;;0.90;0.53;;;12.90;99.90;;;;;;5074238;28;20445;-80
2021/12/30 08:03:00;;;;;;;1.37;0.70;;;12.90;99.90;;;;;;5073117;28;20532;-77
2021/12/30 08:05:28;;;;;;;1.23;0.60;;;12.90;99.90;;;;;;5073325;28;20945;-82
2021/12/30 08:07:57;;;;;;;1.20;0.60;;;13.00;99.90;;;;;;5074136;28;20472;-81
2021/12/30 08:10:24;;;;;;;0.83;0.60;;;12.90;99.90;;;;;;5073270;28;20940;-81
2021/12/30 08:12:52;;;;;;;0.90;0.70;;;13.00;99.90;;;;;;5073862;28;20572;-81
2021/12/30 08:15:20;;;;;;;1.00;0.50;;;13.00;99.90;;;;;;5072328;28;21157;-80
2021/12/30 08:17:49;;;;;;;0.70;0.40;;;13.00;99.90;;;;;;5073898;28;20528;-81
2021/12/30 08:20:17;;;;;;;0.80;0.60;;;13.10;99.90;;;;;;5073093;28;20507;-81
2021/12/30 08:22:45;;;;;;;2.17;0.80;;;13.10;99.90;;;;;;5073468;28;20933;-82
2021/12/30 08:25:14;;;;;;;0.80;0.60;;;13.10;99.90;;;;;;5072789;28;20460;-81
2021/12/30 08:27:42;;;;;;;0.90;0.60;;;13.20;99.90;;;;;;5073743;28;20445;-82
2021/12/30 08:30:12;;;;;;;1.10;0.60;;;13.10;99.90;;;;;;5073264;28;20453;-81
2021/12/30 08:32:39;;;;;;;1.50;0.90;;;13.20;99.90;;;;;;5073345;28;20930;-82
2021/12/30 08:35:08;;;;;;;2.03;1.40;;;13.20;99.90;;;;;;5072418;28;20484;-82
2021/12/30 08:37:35;;;;;;;2.00;1.07;;;13.20;99.90;;;;;;5073570;28;20449;-82
2021/12/30 08:40:05;;;;;;;1.90;0.87;;;13.20;99.90;;;;;;5072524;28;20958;-81
2021/12/30 08:42:32;;;;;;;1.23;0.70;;;13.20;99.90;;;;;;5073521;28;20537;-82
2021/12/30 08:45:01;;;;;;;2.20;0.67;;;13.20;99.90;;;;;;5072692;28;20816;-82
2021/12/30 08:47:30;;;;;;;1.67;0.60;;;13.20;99.90;;;;;;5073131;28;20549;-82
2021/12/30 08:49:57;;;;;;;3.37;0.90;;;13.20;99.90;;;;;;5073382;28;20457;-82
2021/12/30 08:52:26;;;;;;;1.27;0.70;;;13.20;99.90;;;;;;5072471;28;20582;-81
2021/12/30 08:54:55;;;;;;;1.10;0.70;;;13.20;99.90;;;;;;5072266;28;20930;-82
2021/12/30 08:57:25;;;;;;;0.80;0.67;;;13.20;99.90;;;;;;5072710;28;20445;-82
2021/12/30 08:59:52;;;;;;;1.23;0.90;;;13.20;99.90;;;;;;5060038;28;20441;-82
2021/12/30 09:02:19;;;;;;;1.90;1.00;;;13.20;99.90;;;;;;5072374;28;20797;-82
2021/12/30 09:04:46;;;;;;;1.30;0.80;;;13.20;99.90;;;;;;5072358;28;20945;-82
2021/12/30 09:07:15;;;;;;;1.20;0.80;;;13.20;99.90;;;;;;5071847;28;20450;-82
2021/12/30 09:09:43;;;;;;;0.83;0.57;;;13.20;99.90;;;;;;5072899;28;20449;-82
2021/12/30 09:12:10;;;;;;;1.53;0.80;;;13.20;99.90;;;;;;5072026;28;20948;-82
2021/12/30 09:14:38;;;;;;;0.97;0.60;;;13.40;99.90;;;;;;5072500;28;20503;-83
2021/12/30 09:17:06;;;;;;;1.03;0.80;;;13.40;99.90;;;;;;5072194;28;20485;-83
2021/12/30 09:19:33;;;;;;;0.90;0.70;;;13.40;99.90;;;;;;5072457;28;20964;-82
2021/12/30 09:22:00;;;;;;;0.80;0.60;;;13.50;99.90;;;;;;5071800;28;20457;-74
2021/12/30 09:24:27;;;;;;;1.03;0.70;;;13.60;99.90;;;;;;5071968;28;20957;-84
2021/12/30 09:26:54;;;;;;;1.20;0.70;;;13.70;99.90;;;;;;5071720;28;20457;-83
2021/12/30 09:29:21;;;;;;;0.90;0.60;;;13.80;99.90;;;;;;5072021;28;20533;-83
2021/12/30 09:31:52;;;;;;;1.67;0.60;;;13.90;99.90;;;;;;5072386;28;20464;-84
2021/12/30 09:34:20;;;;;;;1.33;1.17;;;13.90;99.90;;;;;;5071584;28;20802;-83
2021/12/30 09:36:47;;;;;;;1.60;0.93;;;13.90;99.90;;;;;;5071972;28;20481;-80
2021/12/30 09:39:15;;;;;;;1.80;1.20;;;14.00;99.90;;;;;;5071454;28;20922;-83
2021/12/30 09:41:44;;;;;;;1.00;0.53;;;14.10;99.90;;;;;;5071886;28;20450;-80
2021/12/30 09:44:12;;;;;;;1.07;0.77;;;14.20;99.90;;;;;;5071021;28;20478;-84
2021/12/30 09:46:39;;;;;;;1.93;0.90;;;14.20;99.90;;;;;;5072330;28;20516;-83
2021/12/30 09:49:12;;;;;;;1.50;0.53;;;14.30;99.90;;;;;;5071836;28;20449;-83
2021/12/30 09:51:41;;;;;;;1.10;0.60;;;14.20;99.90;;;;;;5071712;28;20957;-84
2021/12/30 09:54:09;;;;;;;1.60;1.00;;;14.30;99.90;;;;;;5071083;28;20450;-82
2021/12/30 09:56:36;;;;;;;1.33;0.77;;;14.30;99.90;;;;;;5071759;28;21027;-83
2021/12/30 09:59:03;;;;;;;0.70;0.60;;;14.30;99.90;;;;;;5071440;28;20441;-82
2021/12/30 10:01:30;;;;;;;1.20;0.70;;;14.40;99.90;;;;;;5072197;28;20449;-79
2021/12/30 10:03:58;;;;;;;0.80;0.63;;;14.40;99.90;;;;;;5071492;28;20950;-82
2021/12/30 10:06:26;;;;;;;0.97;0.50;;;14.40;99.90;;;;;;5071936;28;20475;-83
2021/12/30 10:08:54;;;;;;;1.20;0.87;;;14.50;99.90;;;;;;5071621;28;20532;-83
2021/12/30 10:11:21;;;;;;;0.90;0.60;;;14.60;99.90;;;;;;5070927;28;20452;-84
2021/12/30 10:13:53;;;;;;;1.00;0.77;;;14.50;99.90;;;;;;5071455;28;20829;-83
2021/12/30 10:16:20;;;;;;;0.90;0.70;;;14.50;99.90;;;;;;5070661;28;20478;-84
2021/12/30 10:18:50;;;;;;;1.13;0.60;;;14.50;99.90;;;;;;5071262;28;20541;-83
2021/12/30 10:21:19;;;;;;;1.20;0.70;;;14.50;99.90;;;;;;5070560;28;20507;-83
2021/12/30 10:23:49;;;;;;;0.97;0.60;;;14.50;99.90;;;;;;5071087;28;20485;-83
2021/12/30 10:26:17;;;;;;;0.80;0.50;;;14.50;99.90;;;;;;5070889;28;20951;-83
2021/12/30 10:28:44;;;;;;;1.10;0.70;;;14.50;99.90;;;;;;5071465;28;20445;-83
2021/12/30 10:31:21;;;;;;;1.00;0.70;;;14.50;99.90;;;;;;5071094;28;20544;-83
2021/12/30 10:33:51;;;;;;;0.80;0.50;;;14.50;99.90;;;;;;5071148;28;20545;-83
2021/12/30 10:36:20;;;;;;;2.57;0.90;;;14.60;99.90;;;;;;5070806;28;20831;-83
2021/12/30 10:38:48;;;;;;;1.00;0.67;;;14.70;99.90;;;;;;5058087;28;20450;-83
2021/12/30 10:41:16;;;;;;;0.70;0.60;;;14.70;99.90;;;;;;5070502;28;20960;-83
2021/12/30 10:43:47;;;;;;;1.00;0.67;;;14.70;99.90;;;;;;5070661;28;20460;-82
2021/12/30 10:46:17;;;;;;;0.80;0.70;;;14.70;99.90;;;;;;5071082;28;20475;-83
2021/12/30 10:49:04;;;;;;;1.10;0.60;;;14.80;99.90;;;;;;5071434;28;20520;-83
2021/12/30 10:51:40;;;;;;;2.40;0.70;;;14.90;99.90;;;;;;5070866;28;21011;-83
2021/12/30 10:54:15;;;;;;;1.47;0.67;;;15.00;99.90;;;;;;5070743;28;20444;-84
2021/12/30 10:56:44;;;;;;;4.10;0.90;;;15.00;99.90;;;;;;5071423;28;20473;-83
2021/12/30 10:59:17;;;;;;;1.17;0.77;;;15.00;99.90;;;;;;5070712;28;20463;-84
2021/12/30 11:01:46;;;;;;;0.80;0.60;;;15.20;99.90;;;;;;5070986;28;20473;-78
2021/12/30 11:04:13;;;;;;;1.03;0.70;;;15.40;99.90;;;;;;5070248;28;20453;-79
2021/12/30 11:06:41;;;;;;;1.30;1.00;;;15.40;99.90;;;;;;5070862;28;20460;-83
2021/12/30 11:09:13;;;;;;;1.83;0.60;;;15.40;99.90;;;;;;5070368;28;20532;-83
2021/12/30 11:11:49;;;;;;;0.80;0.50;;;15.40;99.90;;;;;;5071436;28;20447;-83
2021/12/30 11:14:19;;;;;;;0.70;0.60;;;15.40;99.90;;;;;;5070428;28;20468;-84
2021/12/30 11:16:57;;;;;;;0.70;0.50;;;15.50;99.90;;;;;;5070457;28;20484;-83
2021/12/30 11:19:26;;;;;;;0.70;0.50;;;15.60;6.40;;;;;;5057222;28;21038;-83
2021/12/30 11:21:53;;;;;;;1.07;0.67;;;15.70;1.00;;;;;;5071090;28;20458;-83
2021/12/30 11:24:22;;;;;;;1.10;0.70;;;15.80;1.00;;;;;;5069881;28;20921;-84
2021/12/30 11:26:49;;;;;;;0.80;0.50;;;15.90;1.00;;;;;;5071055;28;20464;-83
2021/12/30 11:29:17;;;;;;;0.67;0.50;;;15.90;1.00;;;;;;5070671;28;20449;-83
2021/12/30 11:31:44;;;;;;;0.70;0.50;;;16.00;1.00;;;;;;5071111;28;20875;-84
2021/12/30 11:34:11;;;;;;;0.80;0.70;;;16.00;1.00;;;;;;5069817;28;20460;-83
2021/12/30 11:36:38;;;;;;;0.70;0.50;;;16.10;99.90;;;;;;5070493;28;21023;-83
2021/12/30 11:39:13;;;;;;;0.70;0.53;;;16.10;99.90;;;;;;5070485;28;20447;-84
2021/12/30 11:41:45;;;;;;;1.10;0.70;;;16.00;99.90;;;;;;5070924;28;20452;-81
2021/12/30 11:44:32;;;;;;;0.80;0.50;;;16.00;1.00;;;;;;5069969;28;21009;-79
2021/12/30 11:46:59;;;;;;;0.93;0.70;;;16.10;1.00;;;;;;5070616;28;20449;-83
2021/12/30 11:49:50;;;;;;;0.80;0.60;;;16.30;99.90;;;;;;5070638;28;20532;-83
2021/12/30 11:52:48;;;;;;;2.40;1.13;;;16.20;99.90;;;;;;5073582;28;20477;-82
2021/12/30 11:55:55;;;;;;;0.93;0.70;;;16.20;99.90;;;;;;5073529;28;20460;-82
2021/12/30 11:58:54;;;;;;;1.67;0.80;;;16.30;99.90;;;;;;5068743;28;20814;-82
2021/12/30 12:01:36;;;;;;;1.93;0.70;;;16.30;99.90;;;;;;5031578;28;20526;-82
2021/12/30 12:04:12;;;;;;;1.10;0.60;;;16.40;52.20;;;;;;5068019;28;20460;-82
2021/12/30 12:06:42;;;;;;;1.00;0.73;;;16.50;44.60;;;;;;5074280;28;20445;-83
2021/12/30 12:09:12;;;;;;;0.80;0.60;;;16.40;80.90;;;;;;5073608;28;20441;-83
2021/12/30 12:11:49;;;;;;;0.90;0.50;;;16.40;97.20;;;;;;5074674;28;20456;-83
2021/12/30 12:14:19;;;;;;;0.90;0.60;;;16.40;99.90;;;;;;5073191;28;20465;-83
2021/12/30 12:16:59;;;;;;;0.67;0.40;;;16.40;37.60;;;;;;5073776;28;20479;-82
2021/12/30 12:19:34;;;;;;;1.13;0.73;;;16.50;1.00;;;;;;5074198;28;20445;-82
2021/12/30 12:22:03;;;;;;;1.73;0.70;;;16.50;1.00;;;;;;5073283;28;20551;-82
2021/12/30 12:24:33;;;;;;;0.83;0.67;;;16.50;1.00;;;;;;5073848;28;20445;-78
2021/12/30 12:27:02;;;;;;;0.70;0.40;;;16.50;1.00;;;;;;5073387;28;20474;-73
2021/12/30 12:29:33;;;;;;;0.70;0.40;;;16.40;1.00;;;;;;5073596;28;20449;-83
2021/12/30 12:32:03;;;;;;;0.80;0.50;;;16.30;1.00;;;;;;5073346;28;20453;-71
2021/12/30 12:34:34;;;;;;;2.13;0.60;;;16.30;27.80;;;;;;5072729;28;20499;-77
2021/12/30 12:37:02;;;;;;;2.00;0.80;;;16.30;1.00;;;;;;5072589;28;20576;-75
2021/12/30 12:39:34;;;;;;;0.93;0.50;;;16.30;94.20;;;;;;5073367;28;20454;-82
2021/12/30 12:42:01;;;;;;;0.97;0.70;;;16.20;99.90;;;;;;5072342;28;20452;-82
2021/12/30 12:44:30;;;;;;;0.90;0.60;;;16.20;99.90;;;;;;5073354;28;20449;-82
2021/12/30 12:46:59;;;;;;;0.80;0.60;;;16.30;99.90;;;;;;5059925;28;20938;-82
2021/12/30 12:49:43;;;;;;;0.93;0.73;;;16.20;99.90;;;;;;5073496;28;20453;-82
2021/12/30 12:52:10;;;;;;;0.70;0.50;;;16.00;99.90;;;;;;5072890;28;20489;-82
2021/12/30 12:54:39;;;;;;;0.70;0.50;;;16.10;99.90;;;;;;5073175;28;20461;-82